Time;durP1;ratioP1;P1;durP2;ratioP2;P2;SDS_P1;SDS_P2;PMS_P1;PMS_P2;Temp;Humidity;BMP_temperature;BMP_pressure;BME280_temperature;BME280_humidity;BME280_pressure;Samples;Min_cycle;Max_cycle;Signal;HPM_P1;HPM_P2
2020/07/03 00:00:22;;;;;;;5.500001;4.9;;;;;;;16.35;100;95227.66;;;;
2020/07/03 00:01:29;;;;;;;5.500001;4.9;;;;;;;16.35;100;95227.66;;;;
2020/07/03 00:02:30;;;;;;;5.500001;4.9;;;;;;;16.35;100;95227.66;;;;
2020/07/03 00:03:30;;;;;;;5.3;4.75;;;;;;;16.27;100;95231.86;;;;
2020/07/03 00:04:30;;;;;;;5.3;4.75;;;;;;;16.27;100;95231.86;;;;
2020/07/03 00:05:31;;;;;;;5.3;4.75;;;;;;;16.27;100;95231.86;;;;
2020/07/03 00:06:32;;;;;;;5.3;4.75;;;;;;;16.27;100;95231.86;;;;
2020/07/03 00:07:32;;;;;;;5.3;4.75;;;;;;;16.27;100;95231.86;;;;
2020/07/03 00:08:33;;;;;;;5.3;4.75;;;;;;;16.27;100;95231.86;;;;
2020/07/03 00:09:33;;;;;;;5.3;4.75;;;;;;;16.27;100;95231.86;;;;
2020/07/03 00:10:34;;;;;;;5.3;4.75;;;;;;;16.27;100;95231.86;;;;
2020/07/03 00:11:35;;;;;;;5.3;4.75;;;;;;;16.27;100;95231.86;;;;
2020/07/03 00:12:35;;;;;;;5.3;4.75;;;;;;;16.27;100;95231.86;;;;
2020/07/03 00:13:36;;;;;;;4.649999;4.25;;;;;;;16.23;100;95244.42;;;;
2020/07/03 00:14:36;;;;;;;4.649999;4.25;;;;;;;16.23;100;95244.42;;;;
2020/07/03 00:15:37;;;;;;;4.649999;4.25;;;;;;;16.23;100;95244.42;;;;
2020/07/03 00:16:37;;;;;;;4.649999;4.25;;;;;;;16.23;100;95244.42;;;;
2020/07/03 00:17:38;;;;;;;4.649999;4.25;;;;;;;16.23;100;95244.42;;;;
2020/07/03 00:18:39;;;;;;;4.649999;4.25;;;;;;;16.23;100;95244.42;;;;
2020/07/03 00:19:39;;;;;;;4.649999;4.25;;;;;;;16.23;100;95244.42;;;;
2020/07/03 00:20:39;;;;;;;4.649999;4.25;;;;;;;16.23;100;95244.42;;;;
2020/07/03 00:21:40;;;;;;;4.649999;4.25;;;;;;;16.23;100;95244.42;;;;
2020/07/03 00:22:40;;;;;;;4.649999;4.25;;;;;;;16.23;100;95244.42;;;;
2020/07/03 00:23:41;;;;;;;4.649999;4.25;;;;;;;16.23;100;95244.42;;;;
2020/07/03 00:24:41;;;;;;;4.299999;3.95;;;;;;;16.04;100;95233.23;;;;
2020/07/03 00:25:42;;;;;;;4.299999;3.95;;;;;;;16.04;100;95233.23;;;;
2020/07/03 00:26:42;;;;;;;4.299999;3.95;;;;;;;16.04;100;95233.23;;;;
2020/07/03 00:27:43;;;;;;;4.299999;3.95;;;;;;;16.04;100;95233.23;;;;
2020/07/03 00:28:43;;;;;;;4.299999;3.95;;;;;;;16.04;100;95233.23;;;;
2020/07/03 00:29:44;;;;;;;4.299999;3.95;;;;;;;16.04;100;95233.23;;;;
2020/07/03 00:30:44;;;;;;;4.299999;3.95;;;;;;;16.04;100;95233.23;;;;
2020/07/03 00:31:45;;;;;;;4.299999;3.95;;;;;;;16.04;100;95233.23;;;;
2020/07/03 00:32:45;;;;;;;4.299999;3.95;;;;;;;16.04;100;95233.23;;;;
2020/07/03 00:33:46;;;;;;;4.299999;3.95;;;;;;;16.04;100;95233.23;;;;
2020/07/03 00:34:46;;;;;;;5.699999;4.349999;;;;;;;15.95;100;95218.51;;;;
2020/07/03 00:35:46;;;;;;;5.699999;4.349999;;;;;;;15.95;100;95218.51;;;;
2020/07/03 00:36:47;;;;;;;5.699999;4.349999;;;;;;;15.95;100;95218.51;;;;
2020/07/03 00:37:47;;;;;;;5.699999;4.349999;;;;;;;15.95;100;95218.51;;;;
2020/07/03 00:38:48;;;;;;;5.699999;4.349999;;;;;;;15.95;100;95218.51;;;;
2020/07/03 00:39:48;;;;;;;5.699999;4.349999;;;;;;;15.95;100;95218.51;;;;
2020/07/03 00:40:49;;;;;;;5.699999;4.349999;;;;;;;15.95;100;95218.51;;;;
2020/07/03 00:41:49;;;;;;;5.699999;4.349999;;;;;;;15.95;100;95218.51;;;;
2020/07/03 00:42:51;;;;;;;5.699999;4.349999;;;;;;;15.95;100;95218.51;;;;
2020/07/03 00:43:51;;;;;;;5.699999;4.349999;;;;;;;15.95;100;95218.51;;;;
2020/07/03 00:44:52;;;;;;;5.699999;4.349999;;;;;;;15.95;100;95218.51;;;;
2020/07/03 00:45:52;;;;;;;4.45;4;;;;;;;15.84;100;95236.86;;;;
2020/07/03 00:46:53;;;;;;;4.45;4;;;;;;;15.84;100;95236.86;;;;
2020/07/03 00:47:54;;;;;;;4.45;4;;;;;;;15.84;100;95236.86;;;;
2020/07/03 00:48:54;;;;;;;4.45;4;;;;;;;15.84;100;95236.86;;;;
2020/07/03 00:49:55;;;;;;;4.45;4;;;;;;;15.84;100;95236.86;;;;
2020/07/03 00:50:55;;;;;;;4.45;4;;;;;;;15.84;100;95236.86;;;;
2020/07/03 00:51:56;;;;;;;4.45;4;;;;;;;15.84;100;95236.86;;;;
2020/07/03 00:52:57;;;;;;;4.45;4;;;;;;;15.84;100;95236.86;;;;
2020/07/03 00:53:57;;;;;;;4.45;4;;;;;;;15.84;100;95236.86;;;;
2020/07/03 00:54:57;;;;;;;4.45;4;;;;;;;15.84;100;95236.86;;;;
2020/07/03 00:55:58;;;;;;;4.649999;4.2;;;;;;;15.79;100;95232.78;;;;
2020/07/03 00:56:59;;;;;;;4.649999;4.2;;;;;;;15.79;100;95232.78;;;;
2020/07/03 00:58:00;;;;;;;4.649999;4.2;;;;;;;15.79;100;95232.78;;;;
2020/07/03 00:59:01;;;;;;;4.649999;4.2;;;;;;;15.79;100;95232.78;;;;
2020/07/03 01:00:02;;;;;;;4.649999;4.2;;;;;;;15.79;100;95232.78;;;;
2020/07/03 01:01:14;;;;;;;4.649999;4.2;;;;;;;15.79;100;95232.78;;;;
2020/07/03 01:02:15;;;;;;;4.649999;4.2;;;;;;;15.79;100;95232.78;;;;
2020/07/03 01:03:15;;;;;;;4.649999;4.2;;;;;;;15.79;100;95232.78;;;;
2020/07/03 01:04:16;;;;;;;4.649999;4.2;;;;;;;15.79;100;95232.78;;;;
2020/07/03 01:05:16;;;;;;;4.649999;4.2;;;;;;;15.79;100;95232.78;;;;
2020/07/03 01:06:17;;;;;;;4.649999;4.2;;;;;;;15.79;100;95232.78;;;;
2020/07/03 01:07:17;;;;;;;4.899999;4.299999;;;;;;;15.71;100;95235.06;;;;
2020/07/03 01:08:18;;;;;;;4.899999;4.299999;;;;;;;15.71;100;95235.06;;;;
2020/07/03 01:09:18;;;;;;;4.899999;4.299999;;;;;;;15.71;100;95235.06;;;;
2020/07/03 01:10:24;;;;;;;4.899999;4.299999;;;;;;;15.71;100;95235.06;;;;
2020/07/03 01:11:24;;;;;;;4.899999;4.299999;;;;;;;15.71;100;95235.06;;;;
2020/07/03 01:12:25;;;;;;;4.899999;4.299999;;;;;;;15.71;100;95235.06;;;;
2020/07/03 01:13:26;;;;;;;4.899999;4.299999;;;;;;;15.71;100;95235.06;;;;
2020/07/03 01:14:26;;;;;;;4.899999;4.299999;;;;;;;15.71;100;95235.06;;;;
2020/07/03 01:15:27;;;;;;;4.899999;4.299999;;;;;;;15.71;100;95235.06;;;;
2020/07/03 01:16:27;;;;;;;4.899999;4.299999;;;;;;;15.71;100;95235.06;;;;
2020/07/03 01:17:28;;;;;;;4.75;4.35;;;;;;;15.67;100;95227.19;;;;
2020/07/03 01:18:29;;;;;;;4.75;4.35;;;;;;;15.67;100;95227.19;;;;
2020/07/03 01:19:29;;;;;;;4.75;4.35;;;;;;;15.67;100;95227.19;;;;
2020/07/03 01:20:30;;;;;;;4.75;4.35;;;;;;;15.67;100;95227.19;;;;
2020/07/03 01:21:33;;;;;;;4.75;4.35;;;;;;;15.67;100;95227.19;;;;
2020/07/03 01:22:33;;;;;;;4.75;4.35;;;;;;;15.67;100;95227.19;;;;
2020/07/03 01:23:34;;;;;;;4.75;4.35;;;;;;;15.67;100;95227.19;;;;
2020/07/03 01:24:35;;;;;;;4.75;4.35;;;;;;;15.67;100;95227.19;;;;
2020/07/03 01:25:36;;;;;;;4.75;4.35;;;;;;;15.67;100;95227.19;;;;
2020/07/03 01:26:37;;;;;;;4.75;4.35;;;;;;;15.67;100;95227.19;;;;
2020/07/03 01:27:37;;;;;;;4.75;4.35;;;;;;;15.67;100;95227.19;;;;
2020/07/03 01:28:38;;;;;;;4.9;4.349999;;;;;;;15.52;100;95240.59;;;;
2020/07/03 01:29:39;;;;;;;4.9;4.349999;;;;;;;15.52;100;95240.59;;;;
2020/07/03 01:30:39;;;;;;;4.9;4.349999;;;;;;;15.52;100;95240.59;;;;
2020/07/03 01:31:40;;;;;;;4.9;4.349999;;;;;;;15.52;100;95240.59;;;;
2020/07/03 01:32:40;;;;;;;4.9;4.349999;;;;;;;15.52;100;95240.59;;;;
2020/07/03 01:33:41;;;;;;;4.9;4.349999;;;;;;;15.52;100;95240.59;;;;
2020/07/03 01:34:41;;;;;;;4.9;4.349999;;;;;;;15.52;100;95240.59;;;;
2020/07/03 01:35:42;;;;;;;4.9;4.349999;;;;;;;15.52;100;95240.59;;;;
2020/07/03 01:36:42;;;;;;;4.9;4.349999;;;;;;;15.52;100;95240.59;;;;
2020/07/03 01:37:43;;;;;;;4.9;4.349999;;;;;;;15.52;100;95240.59;;;;
2020/07/03 01:38:43;;;;;;;4.55;4.149999;;;;;;;15.47;100;95250.67;;;;
2020/07/03 01:39:44;;;;;;;4.55;4.149999;;;;;;;15.47;100;95250.67;;;;
2020/07/03 01:40:44;;;;;;;4.55;4.149999;;;;;;;15.47;100;95250.67;;;;
2020/07/03 01:41:44;;;;;;;4.55;4.149999;;;;;;;15.47;100;95250.67;;;;
2020/07/03 01:42:45;;;;;;;4.55;4.149999;;;;;;;15.47;100;95250.67;;;;
2020/07/03 01:43:45;;;;;;;4.55;4.149999;;;;;;;15.47;100;95250.67;;;;
2020/07/03 01:44:46;;;;;;;4.55;4.149999;;;;;;;15.47;100;95250.67;;;;
2020/07/03 01:45:47;;;;;;;4.55;4.149999;;;;;;;15.47;100;95250.67;;;;
2020/07/03 01:46:47;;;;;;;4.55;4.149999;;;;;;;15.47;100;95250.67;;;;
2020/07/03 01:47:48;;;;;;;4.55;4.149999;;;;;;;15.47;100;95250.67;;;;
2020/07/03 01:48:48;;;;;;;4.55;4.149999;;;;;;;15.47;100;95250.67;;;;
2020/07/03 01:49:49;;;;;;;4.799999;4.150001;;;;;;;15.42;100;95258.37;;;;
2020/07/03 01:50:50;;;;;;;4.799999;4.150001;;;;;;;15.42;100;95258.37;;;;
2020/07/03 01:51:50;;;;;;;4.799999;4.150001;;;;;;;15.42;100;95258.37;;;;
2020/07/03 01:52:51;;;;;;;4.799999;4.150001;;;;;;;15.42;100;95258.37;;;;
2020/07/03 01:53:51;;;;;;;4.799999;4.150001;;;;;;;15.42;100;95258.37;;;;
2020/07/03 01:54:52;;;;;;;4.799999;4.150001;;;;;;;15.42;100;95258.37;;;;
2020/07/03 01:55:52;;;;;;;4.799999;4.150001;;;;;;;15.42;100;95258.37;;;;
2020/07/03 01:56:52;;;;;;;4.799999;4.150001;;;;;;;15.42;100;95258.37;;;;
2020/07/03 01:57:53;;;;;;;4.799999;4.150001;;;;;;;15.42;100;95258.37;;;;
2020/07/03 01:58:53;;;;;;;4.799999;4.150001;;;;;;;15.42;100;95258.37;;;;
2020/07/03 01:59:54;;;;;;;6.1;4.699999;;;;;;;15.4;100;95249.08;;;;
2020/07/03 02:00:54;;;;;;;6.1;4.699999;;;;;;;15.4;100;95249.08;;;;
2020/07/03 02:01:55;;;;;;;6.1;4.699999;;;;;;;15.4;100;95249.08;;;;
2020/07/03 02:02:55;;;;;;;6.1;4.699999;;;;;;;15.4;100;95249.08;;;;
2020/07/03 02:03:56;;;;;;;6.1;4.699999;;;;;;;15.4;100;95249.08;;;;
2020/07/03 02:04:56;;;;;;;6.1;4.699999;;;;;;;15.4;100;95249.08;;;;
2020/07/03 02:05:57;;;;;;;6.1;4.699999;;;;;;;15.4;100;95249.08;;;;
2020/07/03 02:06:58;;;;;;;6.1;4.699999;;;;;;;15.4;100;95249.08;;;;
2020/07/03 02:07:58;;;;;;;6.1;4.699999;;;;;;;15.4;100;95249.08;;;;
2020/07/03 02:08:59;;;;;;;6.1;4.699999;;;;;;;15.4;100;95249.08;;;;
2020/07/03 02:09:59;;;;;;;6.1;4.699999;;;;;;;15.4;100;95249.08;;;;
2020/07/03 02:11:00;;;;;;;5.1;4.6;;;;;;;15.28;100;95256.67;;;;
2020/07/03 02:12:00;;;;;;;5.1;4.6;;;;;;;15.28;100;95256.67;;;;
2020/07/03 02:13:01;;;;;;;5.1;4.6;;;;;;;15.28;100;95256.67;;;;
2020/07/03 02:14:01;;;;;;;5.1;4.6;;;;;;;15.28;100;95256.67;;;;
2020/07/03 02:15:02;;;;;;;5.1;4.6;;;;;;;15.28;100;95256.67;;;;
2020/07/03 02:16:05;;;;;;;5.1;4.6;;;;;;;15.28;100;95256.67;;;;
2020/07/03 02:17:07;;;;;;;5.1;4.6;;;;;;;15.28;100;95256.67;;;;
2020/07/03 02:18:07;;;;;;;5.1;4.6;;;;;;;15.28;100;95256.67;;;;
2020/07/03 02:19:08;;;;;;;5.1;4.6;;;;;;;15.28;100;95256.67;;;;
2020/07/03 02:20:08;;;;;;;5.1;4.6;;;;;;;15.28;100;95256.67;;;;
2020/07/03 02:21:10;;;;;;;5.499999;4.699999;;;;;;;15.12;100;95263.12;;;;
2020/07/03 02:22:11;;;;;;;5.499999;4.699999;;;;;;;15.12;100;95263.12;;;;
2020/07/03 02:23:11;;;;;;;5.499999;4.699999;;;;;;;15.12;100;95263.12;;;;
2020/07/03 02:24:12;;;;;;;5.499999;4.699999;;;;;;;15.12;100;95263.12;;;;
2020/07/03 02:25:12;;;;;;;5.499999;4.699999;;;;;;;15.12;100;95263.12;;;;
2020/07/03 02:26:13;;;;;;;5.499999;4.699999;;;;;;;15.12;100;95263.12;;;;
2020/07/03 02:27:13;;;;;;;5.499999;4.699999;;;;;;;15.12;100;95263.12;;;;
2020/07/03 02:28:14;;;;;;;5.499999;4.699999;;;;;;;15.12;100;95263.12;;;;
2020/07/03 02:29:14;;;;;;;5.499999;4.699999;;;;;;;15.12;100;95263.12;;;;
2020/07/03 02:30:15;;;;;;;5.499999;4.699999;;;;;;;15.12;100;95263.12;;;;
2020/07/03 02:31:17;;;;;;;5.499999;4.699999;;;;;;;15.12;100;95263.12;;;;
2020/07/03 02:32:17;;;;;;;6.900001;5.300001;;;;;;;15.05;100;95261.18;;;;
2020/07/03 02:33:18;;;;;;;6.900001;5.300001;;;;;;;15.05;100;95261.18;;;;
2020/07/03 02:34:18;;;;;;;6.900001;5.300001;;;;;;;15.05;100;95261.18;;;;
2020/07/03 02:35:19;;;;;;;6.900001;5.300001;;;;;;;15.05;100;95261.18;;;;
2020/07/03 02:36:20;;;;;;;6.900001;5.300001;;;;;;;15.05;100;95261.18;;;;
2020/07/03 02:37:21;;;;;;;6.900001;5.300001;;;;;;;15.05;100;95261.18;;;;
2020/07/03 02:38:21;;;;;;;6.900001;5.300001;;;;;;;15.05;100;95261.18;;;;
2020/07/03 02:39:22;;;;;;;6.900001;5.300001;;;;;;;15.05;100;95261.18;;;;
2020/07/03 02:40:22;;;;;;;6.900001;5.300001;;;;;;;15.05;100;95261.18;;;;
2020/07/03 02:41:23;;;;;;;6.900001;5.300001;;;;;;;15.05;100;95261.18;;;;
2020/07/03 02:42:24;;;;;;;5.900001;5.349999;;;;;;;15.11;100;95277.25;;;;
2020/07/03 02:43:25;;;;;;;5.900001;5.349999;;;;;;;15.11;100;95277.25;;;;
2020/07/03 02:44:25;;;;;;;5.900001;5.349999;;;;;;;15.11;100;95277.25;;;;
2020/07/03 02:45:26;;;;;;;5.900001;5.349999;;;;;;;15.11;100;95277.25;;;;
2020/07/03 02:46:26;;;;;;;5.900001;5.349999;;;;;;;15.11;100;95277.25;;;;
2020/07/03 02:47:27;;;;;;;5.900001;5.349999;;;;;;;15.11;100;95277.25;;;;
2020/07/03 02:48:27;;;;;;;5.900001;5.349999;;;;;;;15.11;100;95277.25;;;;
2020/07/03 02:49:28;;;;;;;5.900001;5.349999;;;;;;;15.11;100;95277.25;;;;
2020/07/03 02:50:28;;;;;;;5.900001;5.349999;;;;;;;15.11;100;95277.25;;;;
2020/07/03 02:51:29;;;;;;;5.900001;5.349999;;;;;;;15.11;100;95277.25;;;;
2020/07/03 02:52:29;;;;;;;5.900001;5.349999;;;;;;;15.11;100;95277.25;;;;
2020/07/03 02:53:30;;;;;;;8.349999;5.450001;;;;;;;15.14;100;95292.24;;;;
2020/07/03 02:54:31;;;;;;;8.349999;5.450001;;;;;;;15.14;100;95292.24;;;;
2020/07/03 02:55:32;;;;;;;8.349999;5.450001;;;;;;;15.14;100;95292.24;;;;
2020/07/03 02:56:32;;;;;;;8.349999;5.450001;;;;;;;15.14;100;95292.24;;;;
2020/07/03 02:57:33;;;;;;;8.349999;5.450001;;;;;;;15.14;100;95292.24;;;;
2020/07/03 02:58:34;;;;;;;8.349999;5.450001;;;;;;;15.14;100;95292.24;;;;
2020/07/03 02:59:34;;;;;;;8.349999;5.450001;;;;;;;15.14;100;95292.24;;;;
2020/07/03 03:00:35;;;;;;;8.349999;5.450001;;;;;;;15.14;100;95292.24;;;;
2020/07/03 03:01:40;;;;;;;8.349999;5.450001;;;;;;;15.14;100;95292.24;;;;
2020/07/03 03:02:40;;;;;;;8.349999;5.450001;;;;;;;15.14;100;95292.24;;;;
2020/07/03 03:03:41;;;;;;;6.150001;5.1;;;;;;;15.22;100;95284.53;;;;
2020/07/03 03:04:41;;;;;;;6.150001;5.1;;;;;;;15.22;100;95284.53;;;;
2020/07/03 03:05:42;;;;;;;6.150001;5.1;;;;;;;15.22;100;95284.53;;;;
2020/07/03 03:06:43;;;;;;;6.150001;5.1;;;;;;;15.22;100;95284.53;;;;
2020/07/03 03:07:44;;;;;;;6.150001;5.1;;;;;;;15.22;100;95284.53;;;;
2020/07/03 03:08:44;;;;;;;6.150001;5.1;;;;;;;15.22;100;95284.53;;;;
2020/07/03 03:09:45;;;;;;;6.150001;5.1;;;;;;;15.22;100;95284.53;;;;
2020/07/03 03:10:45;;;;;;;6.150001;5.1;;;;;;;15.22;100;95284.53;;;;
2020/07/03 03:11:46;;;;;;;6.150001;5.1;;;;;;;15.22;100;95284.53;;;;
2020/07/03 03:12:46;;;;;;;6.150001;5.1;;;;;;;15.22;100;95284.53;;;;
2020/07/03 03:13:47;;;;;;;6.150001;5.1;;;;;;;15.22;100;95284.53;;;;
2020/07/03 03:14:47;;;;;;;9.5;4.9;;;;;;;15.2;100;95294.29;;;;
2020/07/03 03:15:48;;;;;;;9.5;4.9;;;;;;;15.2;100;95294.29;;;;
2020/07/03 03:16:48;;;;;;;9.5;4.9;;;;;;;15.2;100;95294.29;;;;
2020/07/03 03:17:49;;;;;;;9.5;4.9;;;;;;;15.2;100;95294.29;;;;
2020/07/03 03:18:49;;;;;;;9.5;4.9;;;;;;;15.2;100;95294.29;;;;
2020/07/03 03:19:50;;;;;;;9.5;4.9;;;;;;;15.2;100;95294.29;;;;
2020/07/03 03:20:50;;;;;;;9.5;4.9;;;;;;;15.2;100;95294.29;;;;
2020/07/03 03:21:52;;;;;;;9.5;4.9;;;;;;;15.2;100;95294.29;;;;
2020/07/03 03:22:52;;;;;;;9.5;4.9;;;;;;;15.2;100;95294.29;;;;
2020/07/03 03:23:53;;;;;;;9.5;4.9;;;;;;;15.2;100;95294.29;;;;
2020/07/03 03:24:53;;;;;;;6;5.349999;;;;;;;15.24;100;95303.56;;;;
2020/07/03 03:25:54;;;;;;;6;5.349999;;;;;;;15.24;100;95303.56;;;;
2020/07/03 03:26:54;;;;;;;6;5.349999;;;;;;;15.24;100;95303.56;;;;
2020/07/03 03:27:55;;;;;;;6;5.349999;;;;;;;15.24;100;95303.56;;;;
2020/07/03 03:28:55;;;;;;;6;5.349999;;;;;;;15.24;100;95303.56;;;;
2020/07/03 03:29:56;;;;;;;6;5.349999;;;;;;;15.24;100;95303.56;;;;
2020/07/03 03:30:57;;;;;;;6;5.349999;;;;;;;15.24;100;95303.56;;;;
2020/07/03 03:31:57;;;;;;;6;5.349999;;;;;;;15.24;100;95303.56;;;;
2020/07/03 03:32:58;;;;;;;6;5.349999;;;;;;;15.24;100;95303.56;;;;
2020/07/03 03:33:58;;;;;;;6;5.349999;;;;;;;15.24;100;95303.56;;;;
2020/07/03 03:34:59;;;;;;;5.8;5;;;;;;;15.19;100;95311.7;;;;
2020/07/03 03:36:00;;;;;;;5.8;5;;;;;;;15.19;100;95311.7;;;;
2020/07/03 03:37:00;;;;;;;5.8;5;;;;;;;15.19;100;95311.7;;;;
2020/07/03 03:38:01;;;;;;;5.8;5;;;;;;;15.19;100;95311.7;;;;
2020/07/03 03:39:02;;;;;;;5.8;5;;;;;;;15.19;100;95311.7;;;;
2020/07/03 03:40:04;;;;;;;5.8;5;;;;;;;15.19;100;95311.7;;;;
2020/07/03 03:41:06;;;;;;;5.8;5;;;;;;;15.19;100;95311.7;;;;
2020/07/03 03:42:07;;;;;;;5.8;5;;;;;;;15.19;100;95311.7;;;;
2020/07/03 03:43:07;;;;;;;5.8;5;;;;;;;15.19;100;95311.7;;;;
2020/07/03 03:44:08;;;;;;;5.8;5;;;;;;;15.19;100;95311.7;;;;
2020/07/03 03:45:08;;;;;;;5.8;5;;;;;;;15.19;100;95311.7;;;;
2020/07/03 03:46:16;;;;;;;8.250001;5.15;;;;;;;15.19;100;95323;;;;
2020/07/03 03:47:17;;;;;;;8.250001;5.15;;;;;;;15.19;100;95323;;;;
2020/07/03 03:48:17;;;;;;;8.250001;5.15;;;;;;;15.19;100;95323;;;;
2020/07/03 03:49:18;;;;;;;8.250001;5.15;;;;;;;15.19;100;95323;;;;
2020/07/03 03:50:19;;;;;;;8.250001;5.15;;;;;;;15.19;100;95323;;;;
2020/07/03 03:51:19;;;;;;;8.250001;5.15;;;;;;;15.19;100;95323;;;;
2020/07/03 03:52:20;;;;;;;8.250001;5.15;;;;;;;15.19;100;95323;;;;
2020/07/03 03:53:20;;;;;;;8.250001;5.15;;;;;;;15.19;100;95323;;;;
2020/07/03 03:54:21;;;;;;;8.250001;5.15;;;;;;;15.19;100;95323;;;;
2020/07/03 03:55:21;;;;;;;8.250001;5.15;;;;;;;15.19;100;95323;;;;
2020/07/03 03:56:28;;;;;;;8.250001;5.15;;;;;;;15.19;100;95323;;;;
2020/07/03 03:57:28;;;;;;;8.250001;5.15;;;;;;;15.19;100;95323;;;;
2020/07/03 03:58:29;;;;;;;8.250001;5.15;;;;;;;15.19;100;95323;;;;
2020/07/03 03:59:29;;;;;;;8.250001;5.15;;;;;;;15.19;100;95323;;;;
2020/07/03 04:00:30;;;;;;;8.250001;5.15;;;;;;;15.19;100;95323;;;;
2020/07/03 04:01:30;;;;;;;8.250001;5.15;;;;;;;15.19;100;95323;;;;
2020/07/03 04:02:31;;;;;;;8.250001;5.15;;;;;;;15.19;100;95323;;;;
2020/07/03 04:03:31;;;;;;;8.250001;5.15;;;;;;;15.19;100;95323;;;;
2020/07/03 04:04:32;;;;;;;8.250001;5.15;;;;;;;15.19;100;95323;;;;
2020/07/03 04:05:33;;;;;;;8.250001;5.15;;;;;;;15.19;100;95323;;;;
2020/07/03 04:06:34;;;;;;;8.250001;5.15;;;;;;;15.19;100;95323;;;;
2020/07/03 04:07:34;;;;;;;8.250001;5.15;;;;;;;15.19;100;95323;;;;
2020/07/03 04:08:36;;;;;;;8.250001;5.15;;;;;;;15.19;100;95323;;;;
2020/07/03 04:09:37;;;;;;;8.250001;5.15;;;;;;;15.19;100;95323;;;;
2020/07/03 04:10:37;;;;;;;8.250001;5.15;;;;;;;15.19;100;95323;;;;
2020/07/03 04:11:38;;;;;;;8.250001;5.15;;;;;;;15.19;100;95323;;;;
2020/07/03 04:12:39;;;;;;;8.250001;5.15;;;;;;;15.19;100;95323;;;;
2020/07/03 04:13:39;;;;;;;8.250001;5.15;;;;;;;15.19;100;95323;;;;
2020/07/03 04:14:40;;;;;;;8.250001;5.15;;;;;;;15.19;100;95323;;;;
2020/07/03 04:15:40;;;;;;;8.250001;5.15;;;;;;;15.19;100;95323;;;;
2020/07/03 04:16:41;;;;;;;8.250001;5.15;;;;;;;15.19;100;95323;;;;
2020/07/03 04:17:41;;;;;;;8.250001;5.15;;;;;;;15.19;100;95323;;;;
2020/07/03 04:18:42;;;;;;;8.250001;5.15;;;;;;;15.19;100;95323;;;;
2020/07/03 04:19:43;;;;;;;8.250001;5.15;;;;;;;15.19;100;95323;;;;
2020/07/03 04:20:43;;;;;;;8.250001;5.15;;;;;;;15.19;100;95323;;;;
2020/07/03 04:21:44;;;;;;;8.250001;5.15;;;;;;;15.19;100;95323;;;;
2020/07/03 04:22:44;;;;;;;8.250001;5.15;;;;;;;15.19;100;95323;;;;
2020/07/03 04:23:45;;;;;;;8.250001;5.15;;;;;;;15.19;100;95323;;;;
2020/07/03 04:24:45;;;;;;;8.250001;5.15;;;;;;;15.19;100;95323;;;;
2020/07/03 04:25:46;;;;;;;8.250001;5.15;;;;;;;15.19;100;95323;;;;
2020/07/03 04:26:46;;;;;;;8.250001;5.15;;;;;;;15.19;100;95323;;;;
2020/07/03 04:27:47;;;;;;;8.250001;5.15;;;;;;;15.19;100;95323;;;;
2020/07/03 04:28:47;;;;;;;8.250001;5.15;;;;;;;15.19;100;95323;;;;
2020/07/03 04:29:48;;;;;;;8.250001;5.15;;;;;;;15.19;100;95323;;;;
2020/07/03 10:46:07;;;;;;;0;0;;;;;;;0;0;0;;;;
2020/07/03 10:47:07;;;;;;;0;0;;;;;;;0;0;0;;;;
2020/07/03 10:48:08;;;;;;;0;0;;;;;;;0;0;0;;;;
2020/07/03 10:49:09;;;;;;;0;0;;;;;;;0;0;0;;;;
2020/07/03 10:50:09;;;;;;;0;0;;;;;;;0;0;0;;;;
2020/07/03 10:51:09;;;;;;;0;0;;;;;;;0;0;0;;;;
2020/07/03 10:52:10;;;;;;;0;0;;;;;;;0;0;0;;;;
2020/07/03 10:53:10;;;;;;;0;0;;;;;;;0;0;0;;;;
2020/07/03 10:54:11;;;;;;;0;0;;;;;;;0;0;0;;;;
2020/07/03 10:55:11;;;;;;;0;0;;;;;;;0;0;0;;;;
2020/07/03 10:56:12;;;;;;;0;0;;;;;;;0;0;0;;;;
2020/07/03 10:57:12;;;;;;;0;0;;;;;;;0;0;0;;;;
2020/07/03 10:58:13;;;;;;;0;0;;;;;;;0;0;0;;;;
2020/07/03 10:59:13;;;;;;;0;0;;;;;;;0;0;0;;;;
2020/07/03 11:00:14;;;;;;;0;0;;;;;;;0;0;0;;;;
2020/07/03 11:01:14;;;;;;;0;0;;;;;;;0;0;0;;;;
2020/07/03 11:02:15;;;;;;;0;0;;;;;;;0;0;0;;;;
2020/07/03 11:03:16;;;;;;;0;0;;;;;;;0;0;0;;;;
2020/07/03 11:04:16;;;;;;;0;0;;;;;;;0;0;0;;;;
2020/07/03 11:05:17;;;;;;;0;0;;;;;;;0;0;0;;;;
2020/07/03 11:06:17;;;;;;;0;0;;;;;;;0;0;0;;;;
2020/07/03 11:07:18;;;;;;;0;0;;;;;;;0;0;0;;;;
2020/07/03 11:08:18;;;;;;;0;0;;;;;;;0;0;0;;;;
2020/07/03 11:09:19;;;;;;;0;0;;;;;;;0;0;0;;;;
2020/07/03 11:10:19;;;;;;;0;0;;;;;;;0;0;0;;;;
2020/07/03 11:11:20;;;;;;;0;0;;;;;;;0;0;0;;;;
2020/07/03 11:12:21;;;;;;;0;0;;;;;;;0;0;0;;;;
2020/07/03 11:13:21;;;;;;;0;0;;;;;;;0;0;0;;;;
2020/07/03 11:14:21;;;;;;;0;0;;;;;;;0;0;0;;;;
2020/07/03 11:15:22;;;;;;;0;0;;;;;;;0;0;0;;;;
2020/07/03 11:16:22;;;;;;;0;0;;;;;;;0;0;0;;;;
2020/07/03 11:17:23;;;;;;;0;0;;;;;;;0;0;0;;;;
2020/07/03 11:18:23;;;;;;;0;0;;;;;;;0;0;0;;;;
2020/07/03 11:19:24;;;;;;;0;0;;;;;;;0;0;0;;;;
2020/07/03 11:20:24;;;;;;;0;0;;;;;;;0;0;0;;;;
2020/07/03 11:21:25;;;;;;;0;0;;;;;;;0;0;0;;;;
2020/07/03 11:22:25;;;;;;;0;0;;;;;;;0;0;0;;;;
2020/07/03 11:23:26;;;;;;;0;0;;;;;;;0;0;0;;;;
2020/07/03 11:24:26;;;;;;;0;0;;;;;;;0;0;0;;;;
2020/07/03 11:25:27;;;;;;;0;0;;;;;;;0;0;0;;;;
2020/07/03 11:26:27;;;;;;;0;0;;;;;;;0;0;0;;;;
2020/07/03 11:27:28;;;;;;;0;0;;;;;;;0;0;0;;;;
2020/07/03 11:28:28;;;;;;;0;0;;;;;;;0;0;0;;;;
2020/07/03 11:29:28;;;;;;;0;0;;;;;;;0;0;0;;;;
2020/07/03 11:30:29;;;;;;;0;0;;;;;;;0;0;0;;;;
2020/07/03 11:47:30;;;;;;;0;0;;;;;;;0;0;0;;;;
2020/07/03 11:48:31;;;;;;;0;0;;;;;;;0;0;0;;;;
2020/07/03 11:49:31;;;;;;;0;0;;;;;;;0;0;0;;;;
2020/07/03 11:50:31;;;;;;;0;0;;;;;;;0;0;0;;;;
2020/07/03 11:51:32;;;;;;;0;0;;;;;;;0;0;0;;;;
2020/07/03 11:52:32;;;;;;;0;0;;;;;;;0;0;0;;;;
2020/07/03 11:53:33;;;;;;;0;0;;;;;;;0;0;0;;;;
2020/07/03 11:54:33;;;;;;;0;0;;;;;;;0;0;0;;;;
2020/07/03 11:55:34;;;;;;;0;0;;;;;;;0;0;0;;;;
2020/07/03 11:56:34;;;;;;;0;0;;;;;;;0;0;0;;;;
2020/07/03 11:57:35;;;;;;;0;0;;;;;;;0;0;0;;;;
2020/07/03 11:58:35;;;;;;;0;0;;;;;;;0;0;0;;;;
2020/07/03 11:59:36;;;;;;;0;0;;;;;;;0;0;0;;;;
2020/07/03 12:00:36;;;;;;;0;0;;;;;;;0;0;0;;;;
2020/07/03 12:01:37;;;;;;;0;0;;;;;;;0;0;0;;;;
2020/07/03 12:02:37;;;;;;;0;0;;;;;;;0;0;0;;;;
2020/07/03 12:03:38;;;;;;;0;0;;;;;;;0;0;0;;;;
2020/07/03 12:04:38;;;;;;;0;0;;;;;;;0;0;0;;;;
2020/07/03 12:05:39;;;;;;;0;0;;;;;;;0;0;0;;;;
2020/07/03 12:06:39;;;;;;;0;0;;;;;;;0;0;0;;;;
2020/07/03 12:07:39;;;;;;;0;0;;;;;;;0;0;0;;;;
2020/07/03 12:08:40;;;;;;;0;0;;;;;;;0;0;0;;;;
2020/07/03 12:09:41;;;;;;;0;0;;;;;;;0;0;0;;;;
2020/07/03 12:10:41;;;;;;;0;0;;;;;;;0;0;0;;;;
2020/07/03 12:11:42;;;;;;;0;0;;;;;;;0;0;0;;;;
2020/07/03 12:12:42;;;;;;;0;0;;;;;;;0;0;0;;;;
2020/07/03 12:13:43;;;;;;;0;0;;;;;;;0;0;0;;;;
2020/07/03 12:14:43;;;;;;;0;0;;;;;;;0;0;0;;;;
2020/07/03 12:15:44;;;;;;;0;0;;;;;;;0;0;0;;;;
2020/07/03 12:16:44;;;;;;;0;0;;;;;;;0;0;0;;;;
2020/07/03 12:17:45;;;;;;;0;0;;;;;;;0;0;0;;;;
2020/07/03 12:18:45;;;;;;;0;0;;;;;;;0;0;0;;;;
2020/07/03 12:19:46;;;;;;;0;0;;;;;;;0;0;0;;;;
2020/07/03 12:20:46;;;;;;;0;0;;;;;;;0;0;0;;;;
2020/07/03 12:21:47;;;;;;;0;0;;;;;;;0;0;0;;;;
2020/07/03 12:22:47;;;;;;;0;0;;;;;;;0;0;0;;;;
2020/07/03 12:23:48;;;;;;;0;0;;;;;;;0;0;0;;;;
2020/07/03 12:24:49;;;;;;;0;0;;;;;;;0;0;0;;;;
2020/07/03 12:25:49;;;;;;;0;0;;;;;;;0;0;0;;;;
2020/07/03 12:26:49;;;;;;;0;0;;;;;;;0;0;0;;;;
2020/07/03 12:27:50;;;;;;;0;0;;;;;;;0;0;0;;;;
2020/07/03 12:28:50;;;;;;;0;0;;;;;;;0;0;0;;;;
2020/07/03 12:29:51;;;;;;;0;0;;;;;;;0;0;0;;;;
2020/07/03 12:30:51;;;;;;;0;0;;;;;;;0;0;0;;;;
2020/07/03 12:31:52;;;;;;;0;0;;;;;;;0;0;0;;;;
2020/07/03 12:32:52;;;;;;;0;0;;;;;;;0;0;0;;;;
2020/07/03 12:33:53;;;;;;;0;0;;;;;;;0;0;0;;;;
2020/07/03 12:34:53;;;;;;;0;0;;;;;;;0;0;0;;;;
2020/07/03 12:35:54;;;;;;;0;0;;;;;;;0;0;0;;;;
2020/07/03 12:36:54;;;;;;;0;0;;;;;;;0;0;0;;;;
2020/07/03 12:37:54;;;;;;;0;0;;;;;;;0;0;0;;;;
2020/07/03 12:38:55;;;;;;;0;0;;;;;;;0;0;0;;;;
2020/07/03 12:39:55;;;;;;;0;0;;;;;;;0;0;0;;;;
2020/07/03 12:40:56;;;;;;;0;0;;;;;;;0;0;0;;;;
2020/07/03 12:41:56;;;;;;;0;0;;;;;;;0;0;0;;;;
2020/07/03 12:42:57;;;;;;;0;0;;;;;;;0;0;0;;;;
2020/07/03 12:43:57;;;;;;;0;0;;;;;;;0;0;0;;;;
2020/07/03 12:44:58;;;;;;;0;0;;;;;;;0;0;0;;;;
2020/07/03 12:45:58;;;;;;;0;0;;;;;;;0;0;0;;;;
2020/07/03 12:46:59;;;;;;;0;0;;;;;;;0;0;0;;;;
2020/07/03 12:47:59;;;;;;;0;0;;;;;;;0;0;0;;;;
2020/07/03 12:49:00;;;;;;;0;0;;;;;;;0;0;0;;;;
2020/07/03 12:50:01;;;;;;;0;0;;;;;;;0;0;0;;;;
2020/07/03 12:51:02;;;;;;;0;0;;;;;;;0;0;0;;;;
2020/07/03 12:52:02;;;;;;;0;0;;;;;;;0;0;0;;;;
2020/07/03 12:53:03;;;;;;;0;0;;;;;;;0;0;0;;;;
2020/07/03 12:54:03;;;;;;;0;0;;;;;;;0;0;0;;;;
2020/07/03 12:55:04;;;;;;;0;0;;;;;;;0;0;0;;;;
2020/07/03 12:56:05;;;;;;;0;0;;;;;;;0;0;0;;;;
2020/07/03 12:57:05;;;;;;;0;0;;;;;;;0;0;0;;;;
2020/07/03 12:58:06;;;;;;;0;0;;;;;;;0;0;0;;;;
2020/07/03 12:59:06;;;;;;;0;0;;;;;;;0;0;0;;;;
2020/07/03 13:00:07;;;;;;;0;0;;;;;;;0;0;0;;;;
2020/07/03 13:01:08;;;;;;;0;0;;;;;;;0;0;0;;;;
2020/07/03 13:02:08;;;;;;;0;0;;;;;;;0;0;0;;;;
2020/07/03 13:03:09;;;;;;;0;0;;;;;;;0;0;0;;;;
2020/07/03 13:04:09;;;;;;;0;0;;;;;;;0;0;0;;;;
2020/07/03 13:05:10;;;;;;;0;0;;;;;;;0;0;0;;;;